Daglege Rapportar

Klikk her for oppdatering!


Detaljar i dag

22/9/12
Time         Wind Dir   Wind Spd  Wind Gust     Hum In   Humidity    Temp In       Temp  Raw Barom   Tot Rain
                            mps        mps          %          %         C         C         mb         mm
0:00              245          2          3         31         68       22.9        3.1    1015.04     309.00
0:10              277          1          3         31         67       22.7        3.1    1015.04     309.00
0:20              294          3          3         31         67       22.6        3.1    1015.04     309.00
0:30              238          2          3         31         68       22.5        3.0    1015.04     309.00
0:40              243          2          3         30         68       22.5        3.0    1015.04     309.00
0:50              250          2          3         30         68       22.4        2.9    1015.04     309.00
1:00              267          2          3         30         68       22.4        2.8    1015.04     309.00
1:10              243          3          3         30         68       22.3        2.8    1015.04     309.00
1:20              263          2          3         31         69       22.2        2.8    1015.04     309.00
1:30              277          1          3         31         69       22.2        2.7    1015.04     309.00
1:40              256          2          3         31         69       22.1        2.7    1015.04     309.00
1:50              264          2          3         31         69       22.0        2.6    1015.04     309.00
2:00              250          3          3         31         70       21.9        2.5    1015.04     309.00
2:10              272          1          3         32         70       21.7        2.5    1015.04     309.00
2:20              258          2          3         32         71       21.6        2.5    1015.04     309.00
2:30              294          2          3         32         70       21.5        2.5    1015.04     309.00
2:40              215          2          3         32         70       21.4        2.4    1015.04     309.00
2:50              288          1          2         32         70       21.3        2.3    1016.04     309.00
3:00              266          2          2         32         70       21.2        2.3    1016.04     309.00
3:10              292          2          2         32         71       21.1        2.2    1016.04     309.00
3:20              252          2          3         32         71       21.0        2.2    1016.04     309.00
3:30              250          0          3         32         71       20.9        2.2    1016.04     309.00
3:40              247          2          3         32         71       20.8        2.2    1016.04     309.00
3:50              258          2          3         32         71       20.7        2.1    1016.04     309.00
4:00              264          0          3         32         71       20.6        2.1    1016.04     309.00
4:10              266          0          2         32         71       20.5        2.1    1016.04     309.00
4:20              287          2          2         32         71       20.4        1.9    1016.04     309.00
4:30              268          2          2         32         72       20.3        1.9    1016.04     309.00
4:40              289          2          3         32         72       20.3        2.0    1016.04     309.00
4:50              252          2          3         32         72       20.2        1.9    1016.04     309.00
5:00              253          2          3         32         73       20.1        2.0    1016.04     309.00
5:10              229          2          2         32         73       20.0        1.9    1016.04     309.00
5:20              275          1          2         33         72       19.9        1.8    1016.04     309.00
5:30              271          2          3         33         73       19.8        1.8    1016.04     309.00
5:40              255          1          3         33         73       19.7        1.8    1016.04     309.00
5:50              250          2          2         33         73       19.7        1.7    1016.04     309.00
6:00              253          0          2         33         73       19.6        1.7    1016.04     309.00
6:10              250          1          2         33         73       19.5        1.7    1016.04     309.00
6:20              260          2          3         33         74       19.4        1.6    1016.04     309.00
6:30              271          3          3         33         74       19.4        1.7    1016.04     309.00
6:40              255          2          3         33         74       19.3        1.6    1016.04     309.00
6:50              277          0          2         33         74       19.2        1.5    1016.04     309.00
7:00              259          2          2         33         75       19.2        1.4    1016.04     309.00
7:10              279          2          2         33         75       19.1        1.4    1016.04     309.00
7:20              260          0          2         33         75       19.0        1.3    1016.04     309.00
7:30              258          2          2         33         75       19.0        1.3    1016.04     309.00
7:40              286          0          2         34         75       18.9        1.4    1016.04     309.00
7:50              238          1          2         34         74       18.8        1.4    1016.04     309.00
8:00              258          1          2         34         74       18.7        1.4    1016.04     309.00
8:10              251          2          2         34         75       18.7        1.4    1016.04     309.00
8:20              259          0          2         34         75       18.6        1.5    1016.04     309.00
8:30              265          1          2         34         76       18.5        1.6    1016.04     309.00
8:40              278          1          2         34         76       18.5        1.6    1016.04     309.00
8:50              281          0          1         34         76       18.6        1.9    1016.04     309.00
9:00              281          0          1         34         75       18.8        2.8    1016.04     309.00
9:10              287          0          2         34         69       19.0        3.7    1016.04     309.00
9:20              287          0          2         34         67       19.2        4.3    1016.04     309.00
9:30              287          0          0         33         65       19.3        4.7    1016.04     309.00
9:40              287          0          0         33         62       19.3        5.0    1016.04     309.00
9:50              287          0          0         33         60       19.4        5.1    1016.04     309.00
10:00             287          0          0         33         62       19.6        5.1    1016.04     309.00
10:10             287          0          0         33         64       19.7        5.3    1016.04     309.00
10:20             100          1          2         33         62       19.9        5.4    1016.04     309.00
10:30              87          0          1         33         61       19.9        5.6    1016.04     309.00
10:40              62          0          1         33         61       20.0        5.6    1016.04     309.00
10:50              62          0          0         33         60       20.1        5.5    1016.04     309.00
11:00              47          2          2         33         62       20.1        5.7    1016.04     309.00
11:10              63          0          2         33         63       20.1        5.7    1016.04     309.00
11:20              63          0          2         33         60       20.2        5.9    1016.04     309.00
11:30              54          0          0         33         59       20.3        6.1    1016.04     309.00
11:40              64          0          0         33         58       20.4        6.3    1016.04     309.00
11:50             107          2          2         34         57       20.7        6.7    1016.04     309.00
12:00              89          0          2         33         53       20.8        6.8    1016.04     309.00
12:10              52          0          0         33         52       20.8        7.0    1016.04     309.00

 


Detaljar i gr

21/9/12
Time         Wind Dir   Wind Spd  Wind Gust     Hum In   Humidity    Temp In       Temp  Raw Barom   Tot Rain
                            mps        mps          %          %         C         C         mb         mm
0:00              239          0          0         32         74       23.8        6.6    1012.04     309.00
0:10              239          0          0         32         76       23.7        6.6    1012.04     309.00
0:20              239          0          0         31         76       23.6        6.6    1012.04     309.00
0:30              239          0          0         32         77       23.6        6.5    1012.04     309.00
0:40              214          0          0         31         78       23.5        6.5    1012.04     309.00
0:50              214          0          0         31         78       23.4        6.4    1012.04     309.00
1:00              221          0          2         31         81       23.4        6.4    1012.04     309.00
1:10              195          0          0         31         81       23.3        6.5    1012.04     309.00
1:20              195          0          0         31         81       23.2        6.5    1012.04     309.00
1:30              195          0          0         31         80       23.1        6.3    1012.04     309.00
1:40              218          0          0         32         81       23.0        6.1    1012.04     309.00
1:50              218          0          0         32         83       22.9        6.1    1012.04     309.00
2:00              223          0          0         32         83       22.8        6.0    1012.04     309.00
2:10              252          0          2         32         81       22.6        6.0    1012.04     309.00
2:20              252          0          2         32         80       22.5        5.9    1012.04     309.00
2:30              252          0          0         32         81       22.5        5.8    1012.04     309.00
2:40              252          0          0         32         81       22.4        5.8    1013.04     309.00
2:50              252          0          0         32         82       22.3        5.8    1013.04     309.00
3:00              258          0          0         32         83       22.3        5.7    1013.04     309.00
3:10              271          0          0         32         83       22.2        5.7    1013.04     309.00
3:20              250          0          0         32         82       22.1        5.5    1013.04     309.00
3:30              250          0          0         32         84       22.0        5.4    1013.04     309.00
3:40              242          1          2         33         85       21.9        5.4    1013.04     309.00
3:50              249          1          2         33         83       21.8        5.6    1013.04     309.00
4:00              230          1          2         33         79       21.7        5.4    1013.04     309.00
4:10              230          0          1         33         80       21.6        5.4    1013.04     309.00
4:20              274          0          1         33         81       21.5        5.4    1013.04     309.00
4:30              230          1          2         33         79       21.4        5.4    1013.04     309.00
4:40              249          2          2         33         78       21.3        5.4    1013.04     309.00
4:50              245          2          2         33         77       21.3        5.4    1013.04     309.00
5:00              278          0          2         33         77       21.2        5.4    1013.04     309.00
5:10              238          0          0         33         76       21.1        5.4    1013.04     309.00
5:20              263          0          0         33         77       21.0        5.4    1013.04     309.00
5:30              248          0          0         33         77       20.9        5.4    1013.04     309.00
5:40              226          2          3         33         77       20.9        5.4    1013.04     309.00
5:50              257          2          3         34         74       20.8        5.7    1013.04     309.00
6:00              265          1          3         34         72       20.7        5.5    1013.04     309.00
6:10              262          1          2         34         73       20.7        5.4    1013.04     309.00
6:20              246          1          2         34         74       20.6        5.2    1014.04     309.00
6:30              240          0          3         34         75       20.5        5.4    1014.04     309.00
6:40              270          0          3         34         75       20.5        5.2    1013.04     309.00
6:50              297          2          2         34         74       20.4        5.2    1014.04     309.00
7:00              290          0          2         34         72       20.3        5.1    1014.04     309.00
7:10              268          1          2         34         73       20.3        5.1    1014.04     309.00
7:20              264          1          2         34         72       20.3        5.0    1014.04     309.00
7:30              258          1          2         34         73       20.4        5.0    1014.04     309.00
7:40              257          0          2         34         73       20.5        5.2    1014.04     309.00
7:50              283          2          2         35         71       20.6        5.1    1014.04     309.00
8:00              237          0          2         34         72       20.6        5.1    1014.04     309.00
8:10              234          0          0         34         73       20.7        5.0    1014.04     309.00
8:20              234          0          0         34         74       20.8        5.0    1014.04     309.00
8:30              284          1          2         34         74       20.9        5.0    1014.04     309.00
8:40              240          0          2         34         74       20.9        5.0    1014.04     309.00
8:50              257          0          0         33         75       21.0        4.8    1014.04     309.00
9:00              288          0          0         33         77       21.1        4.8    1014.04     309.00
9:10              282          1          2         33         76       21.2        5.0    1015.04     309.00
9:20              258          0          2         33         75       21.3        5.3    1015.04     309.00
9:30              280          0          2         32         72       21.6        6.1    1015.04     309.00
9:40              318          2          2         32         65       21.8        6.6    1015.04     309.00
9:50              290          2          3         32         61       22.1        7.0    1015.04     309.00
10:00             272          3          3         31         59       22.3        7.2    1015.04     309.00
10:10             308          0          3         31         59       22.5        7.5    1015.04     309.00
10:20             262          0          3         31         58       22.5        7.7    1015.04     309.00
10:30              99          0          0         31         62       22.6        8.0    1015.04     309.00
10:40              63          2          2         30         61       22.6        8.3    1015.04     309.00
10:50              63          0          3         30         58       22.5        8.1    1015.04     309.00
11:00              92          0          3         30         59       22.4        7.8    1015.04     309.00
11:10             107          0          0         30         59       22.4        7.9    1015.04     309.00
11:20             141          0          0         30         59       22.4        8.3    1015.04     309.00
11:30              62          0          0         30         59       22.4        8.6    1015.04     309.00
11:40              58          1          2         30         61       22.5        8.9    1015.04     309.00
11:50              82          0          1         31         56       22.5        9.0    1015.04     309.00
12:00              78          0          1         31         55       22.5        9.2    1015.04     309.00
12:10              47          0          0         31         55       22.5        9.3    1015.04     309.00
12:20              54          0          2         31         54       22.5        9.3    1015.04     309.00
12:30              72          0          0         31         55       22.5        9.5    1015.04     309.00
12:40              39          0          0         31         53       22.5        9.7    1015.04     309.00
12:50              67          0          0         31         50       22.5        9.9    1015.04     309.00
13:00              54          0          0         30         51       22.6       10.0    1015.04     309.00
13:10              47          0          0         30         49       22.6       10.1    1015.04     309.00
13:20              90          0          2         30         50       22.6       10.0    1014.04     309.00
13:30              61          0          0         30         49       22.7       10.1    1014.04     309.00
13:40              61          0          0         30         49       22.7       10.3    1014.04     309.00
13:50              50          2          2         30         48       22.7       10.4    1014.04     309.00
14:00              19          0          2         31         48       22.7       10.5    1014.04     309.00
14:10              37          0          0         31         47       22.7       10.5    1014.04     309.00
14:20              56          0          0         31         46       22.8       10.5    1014.04     309.00
14:30              15          0          0         31         48       22.8       10.6    1014.04     309.00
14:40              47          0          0         31         46       22.8       10.8    1014.04     309.00
14:50              60          0          0         31         47       22.9       10.8    1014.04     309.00
15:00              47          0          0         31         48       23.0       10.9    1014.04     309.00
15:10              22          0          0         31         46       23.1       10.9    1014.04     309.00
15:20              55          0          0         31         46       23.2       11.0    1014.04     309.00
15:30              55          0          0         31         46       23.3       11.1    1014.04     309.00
15:40              55          0          0         30         46       23.4       11.2    1014.04     309.00
15:50              58          0          0         30         46       23.4       11.2    1014.04     309.00
16:00              55          0          0         30         46       23.4       11.2    1014.04     309.00
16:10              55          0          0         30         46       23.4       11.2    1014.04     309.00
16:20              65          0          0         30         46       23.4       11.2    1014.04     309.00
16:30              32          2          2         30         46       23.4       11.2    1014.04     309.00
16:40              39          0          2         30         42       23.4       10.8    1014.04     309.00
16:50             184          0          0         31         49       23.5       10.2    1014.04     309.00
17:00             200          2          2         31         53       23.4        9.4    1014.04     309.00
17:10             203          0          2         31         56       23.4        8.9    1014.04     309.00
17:20             211          0          2         31         59       23.3        8.4    1014.04     309.00
17:30             204          0          2         31         61       23.3        8.1    1014.04     309.00
17:40             206          0          2         31         62       23.3        7.9    1014.04     309.00
17:50             229          0          0         31         63       23.2        7.6    1014.04     309.00
18:00             229          0          0         31         64       23.1        7.4    1014.04     309.00
18:10             227          0          0         31         67       23.1        7.1    1014.04     309.00
18:20             244          0          0         31         68       23.0        7.0    1014.04     309.00
18:30             244          0          0         31         68       23.0        7.0    1014.04     309.00
18:40             237          1          1         31         70       23.0        6.7    1014.04     309.00
18:50             251          1          2         31         72       23.0        6.5    1014.04     309.00
19:00             243          0          2         31         71       23.0        6.3    1014.04     309.00
19:10             249          0          0         31         72       23.0        6.1    1014.04     309.00
19:20             233          2          2         31         74       23.0        5.9    1014.04     309.00
19:30             237          0          2         31         74       23.0        5.8    1014.04     309.00
19:40             250          0          2         31         73       22.9        5.5    1014.04     309.00
19:50             218          1          3         31         73       22.9        5.3    1014.04     309.00
20:00             238          2          3         31         72       22.8        5.1    1014.04     309.00
20:10             254          1          2         31         71       22.7        5.0    1014.04     309.00
20:20             223          1          3         31         68       22.7        5.0    1014.04     309.00
20:30             239          2          2         31         69       22.6        4.7    1014.04     309.00
20:40             211          2          3         31         68       22.6        4.7    1015.04     309.00
20:50             225          2          3         31         64       22.6        4.7    1015.04     309.00
21:00             247          1          3         31         65       22.6        4.6    1015.04     309.00
21:10             263          3          3         31         66       22.7        4.4    1015.04     309.00
21:20             238          1          3         31         65       22.8        4.4    1015.04     309.00
21:30             247          3          3         31         64       22.9        4.4    1015.04     309.00
21:40             254          3          3         31         65       23.0        4.3    1015.04     309.00
21:50             263          2          3         31         64       23.1        4.2    1015.04     309.00
22:00             256          0          3         30         64       23.1        4.2    1015.04     309.00
22:10             232          2          3         30         64       23.2        4.0    1015.04     309.00
22:20             255          1          3         30         65       23.2        3.9    1015.04     309.00
22:30             293          2          3         30         66       23.2        3.8    1015.04     309.00
22:40             269          2          3         30         65       23.2        3.8    1015.04     309.00
22:50             224          1          3         30         65       23.1        3.8    1015.04     309.00
23:00             272          2          3         30         65       23.0        3.7    1015.04     309.00
23:10             237          2          3         30         66       23.0        3.6    1015.04     309.00
23:20             267          3          3         31         66       22.9        3.5    1015.04     309.00
23:30             255          1          3         31         66       22.9        3.5    1015.04     309.00
23:40             285          2          3         31         66       22.8        3.3    1015.04     309.00
23:50             299          2          2         31         67       22.8        3.2    1015.04     309.00